Time,TemperatureF,DewpointF,PressureIn,WindDirection,WindDirectionDegrees,WindSpeedMPH,WindSpeedGustMPH,Humidity,HourlyPrecipIn,Conditions,Clouds,dailyrainin,SolarRadiationWatts/m^2,SoftwareType,DateUTC
2013-05-07 00:00:00,35.6,32.7,30.08,ESE,112,0.0,0.0,89,0.00,,,0.00,0,WeatherCatV1.15B25,2013-05-07 06:00:00,
2013-05-07 00:05:00,35.5,32.6,30.08,NE,45,2.0,6.0,89,0.00,,,0.00,0,WeatherCatV1.15B25,2013-05-07 06:05:00,
2013-05-07 00:10:00,35.5,32.6,30.08,NE,45,2.0,6.0,89,0.00,,,0.00,0,WeatherCatV1.15B25,2013-05-07 06:10:00,
2013-05-07 00:15:00,35.5,32.6,30.08,NE,45,2.0,6.0,89,0.00,,,0.00,0,WeatherCatV1.15B25,2013-05-07 06:15:00,
2013-05-07 00:20:00,35.8,32.9,30.08,NE,45,1.0,8.0,89,0.00,,,0.00,0,WeatherCatV1.15B25,2013-05-07 06:20:00,
2013-05-07 00:25:00,35.8,32.9,30.08,NE,45,1.0,8.0,89,0.00,,,0.00,0,WeatherCatV1.15B25,2013-05-07 06:25:00,
2013-05-07 00:30:00,35.8,32.9,30.08,NE,45,1.0,8.0,89,0.00,,,0.00,0,WeatherCatV1.15B25,2013-05-07 06:30:00,
2013-05-07 00:35:00,35.8,32.9,30.08,NW,315,1.0,5.0,89,0.00,,,0.00,0,WeatherCatV1.15B25,2013-05-07 06:35:00,
2013-05-07 00:40:00,35.8,32.9,30.08,NW,315,1.0,5.0,89,0.00,,,0.00,0,WeatherCatV1.15B25,2013-05-07 06:40:00,
2013-05-07 00:45:00,35.8,32.9,30.08,NW,315,1.0,5.0,89,0.00,,,0.00,0,WeatherCatV1.15B25,2013-05-07 06:45:00,
2013-05-07 00:50:00,35.9,33.0,30.08,NW,315,1.0,5.0,89,0.00,,,0.00,0,WeatherCatV1.15B25,2013-05-07 06:50:00,
2013-05-07 00:55:00,35.9,33.0,30.08,NW,315,1.0,5.0,89,0.00,,,0.00,0,WeatherCatV1.15B25,2013-05-07 06:55:00,
2013-05-07 01:00:00,35.9,33.0,30.08,NW,315,1.0,5.0,89,0.00,,,0.00,0,WeatherCatV1.15B25,2013-05-07 07:00:00,
2013-05-07 01:05:00,35.6,32.4,30.08,NW,315,1.0,6.0,88,0.00,,,0.00,0,WeatherCatV1.15B25,2013-05-07 07:05:00,
2013-05-07 01:10:00,35.6,32.4,30.08,NW,315,1.0,6.0,88,0.00,,,0.00,0,WeatherCatV1.15B25,2013-05-07 07:10:00,
2013-05-07 01:15:00,35.6,32.4,30.08,NW,315,1.0,6.0,88,0.00,,,0.00,0,WeatherCatV1.15B25,2013-05-07 07:15:00,
2013-05-07 01:20:00,35.3,31.8,30.08,NNW,338,2.0,6.0,87,0.00,,,0.00,0,WeatherCatV1.15B25,2013-05-07 07:20:00,
2013-05-07 01:25:00,35.3,31.8,30.08,NNW,338,2.0,6.0,87,0.00,,,0.00,0,WeatherCatV1.15B25,2013-05-07 07:25:00,
2013-05-07 01:30:00,35.3,31.8,30.08,NNW,338,2.0,6.0,87,0.00,,,0.00,0,WeatherCatV1.15B25,2013-05-07 07:30:00,
2013-05-07 01:35:00,36.6,31.6,30.08,NNW,338,3.0,7.0,82,0.00,,,0.00,0,WeatherCatV1.15B25,2013-05-07 07:35:00,
2013-05-07 01:40:00,36.6,31.6,30.08,NNW,338,3.0,7.0,82,0.00,,,0.00,0,WeatherCatV1.15B25,2013-05-07 07:40:00,
2013-05-07 01:45:00,36.9,31.0,30.07,NNW,338,2.0,6.0,79,0.00,,,0.00,0,WeatherCatV1.15B25,2013-05-07 07:45:00,
2013-05-07 01:50:00,36.9,31.0,30.07,NNW,338,2.0,6.0,79,0.00,,,0.00,0,WeatherCatV1.15B25,2013-05-07 07:50:00,
2013-05-07 01:55:00,36.9,31.0,30.07,NNW,338,2.0,6.0,79,0.00,,,0.00,0,WeatherCatV1.15B25,2013-05-07 07:55:00,
2013-05-07 02:00:00,38.0,31.1,30.07,West,270,1.0,8.0,76,0.00,,,0.00,0,WeatherCatV1.15B25,2013-05-07 08:00:00,
2013-05-07 02:05:00,38.0,31.1,30.07,West,270,1.0,8.0,76,0.00,,,0.00,0,WeatherCatV1.15B25,2013-05-07 08:05:00,
2013-05-07 02:10:00,38.0,31.1,30.07,West,270,1.0,8.0,76,0.00,,,0.00,0,WeatherCatV1.15B25,2013-05-07 08:10:00,
2013-05-07 02:15:00,39.1,31.2,30.07,West,270,2.0,7.0,73,0.00,,,0.00,0,WeatherCatV1.15B25,2013-05-07 08:15:00,
2013-05-07 02:20:00,39.1,31.2,30.07,West,270,2.0,7.0,73,0.00,,,0.00,0,WeatherCatV1.15B25,2013-05-07 08:20:00,
2013-05-07 02:25:00,39.1,31.2,30.07,West,270,2.0,7.0,73,0.00,,,0.00,0,WeatherCatV1.15B25,2013-05-07 08:25:00,
2013-05-07 02:30:00,39.1,31.2,30.07,West,270,2.0,7.0,73,0.00,,,0.00,0,WeatherCatV1.15B25,2013-05-07 08:30:00,
2013-05-07 02:35:00,39.6,30.6,30.06,WSW,248,4.0,14.0,70,0.00,,,0.00,0,WeatherCatV1.15B25,2013-05-07 08:35:00,
2013-05-07 02:40:00,39.6,30.6,30.06,WSW,248,4.0,14.0,70,0.00,,,0.00,0,WeatherCatV1.15B25,2013-05-07 08:40:00,
2013-05-07 02:45:00,39.6,30.6,30.06,WSW,248,4.0,14.0,70,0.00,,,0.00,0,WeatherCatV1.15B25,2013-05-07 08:45:00,
2013-05-07 02:50:00,39.8,30.5,30.06,West,270,4.0,11.0,69,0.00,,,0.00,0,WeatherCatV1.15B25,2013-05-07 08:50:00,
2013-05-07 02:55:00,39.8,30.5,30.06,West,270,4.0,11.0,69,0.00,,,0.00,0,WeatherCatV1.15B25,2013-05-07 08:55:00,
2013-05-07 03:00:00,39.8,30.5,30.06,West,270,4.0,11.0,69,0.00,,,0.00,0,WeatherCatV1.15B25,2013-05-07 09:00:00,
2013-05-07 03:05:00,39.6,32.7,30.07,WSW,248,9.0,19.0,76,0.00,,,0.00,0,WeatherCatV1.15B25,2013-05-07 09:05:00,
2013-05-07 03:10:00,39.6,32.7,30.07,WSW,248,9.0,19.0,76,0.00,,,0.00,0,WeatherCatV1.15B25,2013-05-07 09:10:00,
2013-05-07 03:15:00,39.6,32.7,30.07,WSW,248,9.0,19.0,76,0.00,,,0.00,0,WeatherCatV1.15B25,2013-05-07 09:15:00,
2013-05-07 03:20:00,38.6,31.4,30.06,WSW,248,6.0,16.0,75,0.00,,,0.00,0,WeatherCatV1.15B25,2013-05-07 09:20:00,
2013-05-07 03:25:00,38.6,31.4,30.06,WSW,248,6.0,16.0,75,0.00,,,0.00,0,WeatherCatV1.15B25,2013-05-07 09:25:00,
2013-05-07 03:30:00,38.6,31.4,30.06,WSW,248,6.0,16.0,75,0.00,,,0.00,0,WeatherCatV1.15B25,2013-05-07 09:30:00,
2013-05-07 03:35:00,39.2,30.9,30.07,NW,315,4.0,13.0,72,0.00,,,0.00,0,WeatherCatV1.15B25,2013-05-07 09:35:00,
2013-05-07 03:40:00,39.2,30.9,30.07,NW,315,4.0,13.0,72,0.00,,,0.00,0,WeatherCatV1.15B25,2013-05-07 09:40:00,
2013-05-07 03:45:00,39.2,30.9,30.07,NW,315,4.0,13.0,72,0.00,,,0.00,0,WeatherCatV1.15B25,2013-05-07 09:45:00,
2013-05-07 03:50:00,39.5,30.2,30.07,NW,315,4.0,13.0,69,0.00,,,0.00,0,WeatherCatV1.15B25,2013-05-07 09:50:00,
2013-05-07 03:55:00,39.5,30.2,30.07,NW,315,4.0,13.0,69,0.00,,,0.00,0,WeatherCatV1.15B25,2013-05-07 09:55:00,
2013-05-07 04:00:00,39.5,30.2,30.07,NW,315,4.0,13.0,69,0.00,,,0.00,0,WeatherCatV1.15B25,2013-05-07 10:00:00,
2013-05-07 04:05:00,40.1,30.0,30.06,SW,225,5.0,24.0,67,0.00,,,0.00,0,WeatherCatV1.15B25,2013-05-07 10:05:00,
2013-05-07 04:10:00,40.1,30.0,30.06,SW,225,5.0,24.0,67,0.00,,,0.00,0,WeatherCatV1.15B25,2013-05-07 10:10:00,
2013-05-07 04:15:00,40.1,30.0,30.06,SW,225,5.0,24.0,67,0.00,,,0.00,0,WeatherCatV1.15B25,2013-05-07 10:15:00,
2013-05-07 04:20:00,40.1,30.0,30.06,NW,315,3.0,10.0,67,0.00,,,0.00,0,WeatherCatV1.15B25,2013-05-07 10:20:00,
2013-05-07 04:25:00,40.1,30.0,30.06,NW,315,3.0,10.0,67,0.00,,,0.00,0,WeatherCatV1.15B25,2013-05-07 10:25:00,
2013-05-07 04:30:00,40.1,30.0,30.06,NW,315,3.0,10.0,67,0.00,,,0.00,0,WeatherCatV1.15B25,2013-05-07 10:30:00,
2013-05-07 04:35:00,40.2,29.8,30.06,West,270,5.0,13.0,66,0.00,,,0.00,0,WeatherCatV1.15B25,2013-05-07 10:35:00,
2013-05-07 04:40:00,40.2,29.8,30.06,West,270,5.0,13.0,66,0.00,,,0.00,0,WeatherCatV1.15B25,2013-05-07 10:40:00,
2013-05-07 04:45:00,40.2,29.8,30.06,West,270,5.0,13.0,66,0.00,,,0.00,0,WeatherCatV1.15B25,2013-05-07 10:45:00,
2013-05-07 04:50:00,40.2,29.0,30.06,West,270,4.0,16.0,64,0.00,,,0.00,0,WeatherCatV1.15B25,2013-05-07 10:50:00,
2013-05-07 04:55:00,40.2,29.0,30.06,West,270,4.0,16.0,64,0.00,,,0.00,0,WeatherCatV1.15B25,2013-05-07 10:55:00,
2013-05-07 05:07:00,40.2,29.0,30.06,West,270,4.0,16.0,64,0.00,,,0.00,0,WeatherCatV1.15B25,2013-05-07 11:07:00,
2013-05-07 05:12:00,39.2,29.2,30.06,NNW,347,0.0,4.0,67,0.00,,,0.00,0,WeatherCatV1.15B25,2013-05-07 11:12:00,
2013-05-07 05:17:00,38.9,28.9,30.06,NNW,346,3.0,7.0,67,0.00,,,0.00,0,WeatherCatV1.15B25,2013-05-07 11:17:00,
2013-05-07 05:22:00,38.8,28.8,30.06,NW,319,2.0,6.0,67,0.00,,,0.00,0,WeatherCatV1.15B25,2013-05-07 11:22:00,
2013-05-07 05:27:00,38.8,28.4,30.06,NW,319,1.0,8.0,66,0.00,,,0.00,0,WeatherCatV1.15B25,2013-05-07 11:27:00,
2013-05-07 05:32:00,38.9,28.5,30.06,NNW,332,2.0,7.0,66,0.00,,,0.00,0,WeatherCatV1.15B25,2013-05-07 11:32:00,
2013-05-07 05:34:00,38.9,28.9,30.06,West,275,5.0,8.0,67,0.00,,,0.00,0,WeatherCatV1.15B25,2013-05-07 11:34:00,
2013-05-07 05:39:00,38.8,28.4,30.06,NW,309,4.0,9.0,66,0.00,,,0.00,0,WeatherCatV1.15B25,2013-05-07 11:39:00,
2013-05-07 05:44:00,38.9,28.2,30.06,North,352,3.0,11.0,65,0.00,,,0.00,0,WeatherCatV1.15B25,2013-05-07 11:44:00,
2013-05-07 05:49:00,39.1,28.3,30.06,NNW,343,2.0,15.0,65,0.00,,,0.00,0,WeatherCatV1.15B25,2013-05-07 11:49:00,
2013-05-07 05:54:00,39.3,28.5,30.06,NW,326,7.0,7.0,65,0.00,,,0.00,0,WeatherCatV1.15B25,2013-05-07 11:54:00,
2013-05-07 05:59:00,39.3,28.2,30.06,WNW,285,2.0,10.0,64,0.00,,,0.00,0,WeatherCatV1.15B25,2013-05-07 11:59:00,
2013-05-07 06:04:00,39.3,28.5,30.07,West,281,3.0,8.0,65,0.00,,,0.00,5,WeatherCatV1.15B25,2013-05-07 12:04:00,
2013-05-07 06:09:00,39.2,28.8,30.07,West,281,6.0,6.0,66,0.00,,,0.00,7,WeatherCatV1.15B25,2013-05-07 12:09:00,
2013-05-07 06:14:00,39.1,28.7,30.07,NW,306,8.0,8.0,66,0.00,,,0.00,12,WeatherCatV1.15B25,2013-05-07 12:14:00,
2013-05-07 06:19:00,39.2,28.1,30.07,NW,323,5.0,8.0,64,0.00,,,0.00,18,WeatherCatV1.15B25,2013-05-07 12:19:00,
2013-05-07 06:24:00,39.5,28.3,30.07,NW,326,3.0,10.0,64,0.00,,,0.00,26,WeatherCatV1.15B25,2013-05-07 12:24:00,
2013-05-07 06:29:00,39.6,28.4,30.07,WNW,287,10.0,12.0,64,0.00,,,0.00,32,WeatherCatV1.15B25,2013-05-07 12:29:00,
2013-05-07 06:34:00,39.9,28.0,30.08,NW,319,2.0,12.0,62,0.00,,,0.00,33,WeatherCatV1.15B25,2013-05-07 12:34:00,
2013-05-07 06:39:00,40.1,29.3,30.08,NW,315,6.0,6.0,65,0.00,,,0.00,63,WeatherCatV1.15B25,2013-05-07 12:39:00,
2013-05-07 06:44:00,40.2,29.0,30.08,WNW,301,5.0,8.0,64,0.00,,,0.00,77,WeatherCatV1.15B25,2013-05-07 12:44:00,
2013-05-07 06:49:00,40.8,28.8,30.08,West,260,3.0,10.0,62,0.00,,,0.00,84,WeatherCatV1.15B25,2013-05-07 12:49:00,
2013-05-07 06:54:00,41.3,28.9,30.08,WNW,284,2.0,6.0,61,0.00,,,0.00,84,WeatherCatV1.15B25,2013-05-07 12:54:00,
2013-05-07 06:59:00,41.8,29.7,30.08,NW,309,6.0,7.0,62,0.00,,,0.00,211,WeatherCatV1.15B25,2013-05-07 12:59:00,
2013-05-07 07:04:00,42.5,28.8,30.08,WNW,289,8.0,12.0,58,0.00,,,0.00,206,WeatherCatV1.15B25,2013-05-07 13:04:00,
2013-05-07 07:09:00,42.9,28.3,30.08,WNW,289,2.0,7.0,56,0.00,,,0.00,192,WeatherCatV1.15B25,2013-05-07 13:09:00,
2013-05-07 07:14:00,43.3,29.5,30.08,West,275,3.0,5.0,58,0.00,,,0.00,262,WeatherCatV1.15B25,2013-05-07 13:14:00,
2013-05-07 07:19:00,43.6,28.5,30.08,West,264,5.0,8.0,55,0.00,,,0.00,232,WeatherCatV1.15B25,2013-05-07 13:19:00,
2013-05-07 07:24:00,43.9,28.8,30.08,West,260,0.0,2.0,55,0.00,,,0.00,292,WeatherCatV1.15B25,2013-05-07 13:24:00,
2013-05-07 07:29:00,44.2,28.6,30.09,SW,234,5.0,8.0,54,0.00,,,0.00,384,WeatherCatV1.15B25,2013-05-07 13:29:00,
2013-05-07 07:34:00,44.6,28.1,30.09,West,265,5.0,8.0,52,0.00,,,0.00,401,WeatherCatV1.15B25,2013-05-07 13:34:00,
2013-05-07 07:39:00,44.5,28.0,30.09,WSW,241,9.0,11.0,52,0.00,,,0.00,134,WeatherCatV1.15B25,2013-05-07 13:39:00,
2013-05-07 07:44:00,44.2,28.2,30.08,SW,219,1.0,12.0,53,0.00,,,0.00,143,WeatherCatV1.15B25,2013-05-07 13:44:00,
2013-05-07 07:49:00,43.9,28.3,30.08,WNW,288,13.0,14.0,54,0.00,,,0.00,164,WeatherCatV1.15B25,2013-05-07 13:49:00,
2013-05-07 07:54:00,43.8,28.2,30.08,West,260,9.0,14.0,54,0.00,,,0.00,157,WeatherCatV1.15B25,2013-05-07 13:54:00,
2013-05-07 07:59:00,43.5,28.0,30.09,SW,215,4.0,10.0,54,0.00,,,0.00,107,WeatherCatV1.15B25,2013-05-07 13:59:00,
2013-05-07 08:04:00,43.2,29.0,30.09,SW,215,10.0,13.0,57,0.00,,,0.00,188,WeatherCatV1.15B25,2013-05-07 14:04:00,
2013-05-07 08:09:00,43.2,28.6,30.09,West,268,8.0,13.0,56,0.00,,,0.00,128,WeatherCatV1.15B25,2013-05-07 14:09:00,
2013-05-07 08:14:00,43.5,28.9,30.09,West,267,12.0,12.0,56,0.00,,,0.00,185,WeatherCatV1.15B25,2013-05-07 14:14:00,
2013-05-07 08:19:00,44.1,29.0,30.09,SW,215,9.0,17.0,55,0.00,,,0.00,201,WeatherCatV1.15B25,2013-05-07 14:19:00,
2013-05-07 08:24:00,44.2,29.5,30.09,SSW,210,12.0,19.0,56,0.00,,,0.00,148,WeatherCatV1.15B25,2013-05-07 14:24:00,
2013-05-07 08:29:00,43.8,28.7,30.09,WSW,237,10.0,17.0,55,0.00,,,0.00,167,WeatherCatV1.15B25,2013-05-07 14:29:00,
2013-05-07 08:34:00,44.1,28.5,30.09,WSW,257,8.0,12.0,54,0.00,,,0.00,185,WeatherCatV1.15B25,2013-05-07 14:34:00,
2013-05-07 08:39:00,44.2,28.6,30.09,West,260,12.0,12.0,54,0.00,,,0.00,100,WeatherCatV1.15B25,2013-05-07 14:39:00,
2013-05-07 08:44:00,44.6,29.0,30.09,West,261,5.0,13.0,54,0.00,,,0.00,593,WeatherCatV1.15B25,2013-05-07 14:44:00,
2013-05-07 08:49:00,45.4,29.3,30.09,West,265,8.0,12.0,53,0.00,,,0.00,595,WeatherCatV1.15B25,2013-05-07 14:49:00,
2013-05-07 08:54:00,46.0,29.8,30.09,West,260,11.0,11.0,53,0.00,,,0.00,619,WeatherCatV1.15B25,2013-05-07 14:54:00,
2013-05-07 08:59:00,46.5,28.9,30.09,WSW,243,6.0,11.0,50,0.00,,,0.00,616,WeatherCatV1.15B25,2013-05-07 14:59:00,
2013-05-07 09:04:00,46.7,30.0,30.09,WNW,284,9.0,16.0,52,0.00,,,0.00,644,WeatherCatV1.15B25,2013-05-07 15:04:00,
2013-05-07 09:09:00,47.0,28.8,30.09,SSW,198,9.0,11.0,49,0.00,,,0.00,658,WeatherCatV1.15B25,2013-05-07 15:09:00,
2013-05-07 09:14:00,47.3,30.1,30.09,SW,223,8.0,12.0,51,0.00,,,0.00,681,WeatherCatV1.15B25,2013-05-07 15:14:00,
2013-05-07 09:19:00,47.4,29.7,30.09,West,281,8.0,14.0,50,0.00,,,0.00,709,WeatherCatV1.15B25,2013-05-07 15:19:00,
2013-05-07 09:24:00,47.4,29.2,30.09,SW,224,10.0,15.0,49,0.00,,,0.00,790,WeatherCatV1.15B25,2013-05-07 15:24:00,
2013-05-07 09:29:00,47.0,27.8,30.09,WSW,256,6.0,14.0,47,0.00,,,0.00,813,WeatherCatV1.15B25,2013-05-07 15:29:00,
2013-05-07 09:34:00,46.8,29.2,30.09,West,270,10.0,13.0,50,0.00,,,0.00,797,WeatherCatV1.15B25,2013-05-07 15:34:00,
2013-05-07 09:39:00,47.0,28.3,30.09,West,268,7.0,11.0,48,0.00,,,0.00,663,WeatherCatV1.15B25,2013-05-07 15:39:00,
2013-05-07 09:44:00,47.0,29.3,30.09,WSW,239,6.0,14.0,50,0.00,,,0.00,825,WeatherCatV1.15B25,2013-05-07 15:44:00,
2013-05-07 09:49:00,47.0,29.3,30.09,West,265,12.0,18.0,50,0.00,,,0.00,816,WeatherCatV1.15B25,2013-05-07 15:49:00,
2013-05-07 09:54:00,47.3,29.1,30.09,WSW,258,5.0,12.0,49,0.00,,,0.00,841,WeatherCatV1.15B25,2013-05-07 15:54:00,
2013-05-07 09:59:00,47.6,29.4,30.09,SSW,209,11.0,16.0,49,0.00,,,0.00,816,WeatherCatV1.15B25,2013-05-07 15:59:00,
2013-05-07 10:04:00,47.9,29.7,30.09,WNW,296,11.0,14.0,49,0.00,,,0.00,832,WeatherCatV1.15B25,2013-05-07 16:04:00,
2013-05-07 10:09:00,48.2,29.4,30.09,West,267,7.0,13.0,48,0.00,,,0.00,832,WeatherCatV1.15B25,2013-05-07 16:09:00,
2013-05-07 10:14:00,48.6,29.8,30.09,WSW,241,12.0,13.0,48,0.00,,,0.00,852,WeatherCatV1.15B25,2013-05-07 16:14:00,
2013-05-07 10:19:00,49.1,29.2,30.09,WSW,253,6.0,16.0,46,0.00,,,0.00,892,WeatherCatV1.15B25,2013-05-07 16:19:00,
2013-05-07 10:24:00,48.9,26.8,30.09,West,274,7.0,14.0,42,0.00,,,0.00,889,WeatherCatV1.15B25,2013-05-07 16:24:00,
2013-05-07 10:29:00,49.5,31.1,30.09,WSW,254,2.0,17.0,49,0.00,,,0.00,964,WeatherCatV1.15B25,2013-05-07 16:29:00,
2013-05-07 10:34:00,49.9,28.3,30.09,SSW,210,7.0,13.0,43,0.00,,,0.00,957,WeatherCatV1.15B25,2013-05-07 16:34:00,
2013-05-07 10:39:00,50.2,28.0,30.09,WSW,240,7.0,17.0,42,0.00,,,0.00,945,WeatherCatV1.15B25,2013-05-07 16:39:00,
2013-05-07 10:44:00,50.2,28.0,30.09,SSW,202,10.0,12.0,42,0.00,,,0.00,938,WeatherCatV1.15B25,2013-05-07 16:44:00,
2013-05-07 10:49:00,50.4,28.8,30.09,West,270,6.0,16.0,43,0.00,,,0.00,961,WeatherCatV1.15B25,2013-05-07 16:49:00,
2013-05-07 10:54:00,49.9,28.9,30.09,WNW,299,7.0,12.0,44,0.00,,,0.00,994,WeatherCatV1.15B25,2013-05-07 16:54:00,
2013-05-07 10:59:00,50.4,27.6,30.09,West,268,10.0,12.0,41,0.00,,,0.00,992,WeatherCatV1.15B25,2013-05-07 16:59:00,
2013-05-07 11:04:00,50.4,27.6,30.09,SW,227,2.0,14.0,41,0.00,,,0.00,1005,WeatherCatV1.15B25,2013-05-07 17:04:00,
2013-05-07 11:09:00,50.7,26.7,30.09,SW,232,10.0,13.0,39,0.00,,,0.00,1001,WeatherCatV1.15B25,2013-05-07 17:09:00,
2013-05-07 11:14:00,50.8,28.0,30.09,SW,226,7.0,14.0,41,0.00,,,0.00,1005,WeatherCatV1.15B25,2013-05-07 17:14:00,
2013-05-07 11:19:00,51.1,30.0,30.09,WSW,254,11.0,14.0,44,0.00,,,0.00,1012,WeatherCatV1.15B25,2013-05-07 17:19:00,
2013-05-07 11:24:00,51.3,29.0,30.09,WSW,251,10.0,17.0,42,0.00,,,0.00,1028,WeatherCatV1.15B25,2013-05-07 17:24:00,
2013-05-07 11:29:00,51.1,28.2,30.09,SW,229,6.0,13.0,41,0.00,,,0.00,1054,WeatherCatV1.15B25,2013-05-07 17:29:00,
2013-05-07 11:34:00,51.1,29.4,30.09,WSW,244,0.0,6.0,43,0.00,,,0.00,1054,WeatherCatV1.15B25,2013-05-07 17:34:00,
2013-05-07 11:39:00,52.0,30.2,30.09,WSW,258,18.0,20.0,43,0.00,,,0.00,1145,WeatherCatV1.15B25,2013-05-07 17:39:00,
2013-05-07 11:44:00,51.7,26.9,30.08,NW,306,7.0,14.0,38,0.00,,,0.00,1175,WeatherCatV1.15B25,2013-05-07 17:44:00,
2013-05-07 11:49:00,52.3,31.0,30.08,SSW,200,5.0,12.0,44,0.00,,,0.00,1156,WeatherCatV1.15B25,2013-05-07 17:49:00,
2013-05-07 11:54:00,52.2,29.2,30.08,WSW,239,7.0,13.0,41,0.00,,,0.00,1135,WeatherCatV1.15B25,2013-05-07 17:54:00,
2013-05-07 11:59:00,52.3,29.3,30.08,WSW,240,10.0,17.0,41,0.00,,,0.00,1121,WeatherCatV1.15B25,2013-05-07 17:59:00,
2013-05-07 12:04:00,52.2,29.2,30.08,WSW,244,10.0,17.0,41,0.00,,,0.00,1086,WeatherCatV1.15B25,2013-05-07 18:04:00,
2013-05-07 12:09:00,52.3,29.3,30.08,SW,226,10.0,16.0,41,0.00,,,0.00,1072,WeatherCatV1.15B25,2013-05-07 18:09:00,
2013-05-07 12:14:00,52.9,28.6,30.08,West,270,7.0,12.0,39,0.00,,,0.00,1089,WeatherCatV1.15B25,2013-05-07 18:14:00,
2013-05-07 12:19:00,52.9,29.2,30.08,WSW,254,8.0,14.0,40,0.00,,,0.00,1049,WeatherCatV1.15B25,2013-05-07 18:19:00,
2013-05-07 12:24:00,52.8,27.9,30.08,WSW,248,12.0,13.0,38,0.00,,,0.00,1082,WeatherCatV1.15B25,2013-05-07 18:24:00,
2013-05-07 12:29:00,52.9,29.2,30.08,WSW,241,17.0,19.0,40,0.00,,,0.00,1130,WeatherCatV1.15B25,2013-05-07 18:29:00,
2013-05-07 12:34:00,53.2,28.9,30.08,WSW,237,8.0,11.0,39,0.00,,,0.00,1165,WeatherCatV1.15B25,2013-05-07 18:34:00,
2013-05-07 12:39:00,53.6,28.0,30.08,SSW,209,7.0,17.0,37,0.00,,,0.00,1172,WeatherCatV1.15B25,2013-05-07 18:39:00,
2013-05-07 12:44:00,53.5,29.2,30.08,WNW,295,11.0,17.0,39,0.00,,,0.00,1184,WeatherCatV1.15B25,2013-05-07 18:44:00,
2013-05-07 12:49:00,53.8,29.4,30.08,WSW,257,11.0,12.0,39,0.00,,,0.00,1316,WeatherCatV1.15B25,2013-05-07 18:49:00,
2013-05-07 12:54:00,53.3,29.6,30.08,SW,224,14.0,14.0,40,0.00,,,0.00,1145,WeatherCatV1.15B25,2013-05-07 18:54:00,
2013-05-07 12:59:00,53.6,30.5,30.07,WNW,285,6.0,14.0,41,0.00,,,0.00,1219,WeatherCatV1.15B25,2013-05-07 18:59:00,
2013-05-07 13:04:00,53.8,28.8,30.07,SSW,206,2.0,8.0,38,0.00,,,0.00,702,WeatherCatV1.15B25,2013-05-07 19:04:00,
2013-05-07 13:09:00,53.5,27.9,30.07,West,271,6.0,11.0,37,0.00,,,0.00,509,WeatherCatV1.15B25,2013-05-07 19:09:00,
2013-05-07 13:14:00,52.9,27.3,30.07,WNW,292,5.0,7.0,37,0.00,,,0.00,345,WeatherCatV1.15B25,2013-05-07 19:14:00,
2013-05-07 13:19:00,52.8,26.6,30.07,WSW,258,11.0,12.0,36,0.00,,,0.00,391,WeatherCatV1.15B25,2013-05-07 19:19:00,
2013-05-07 13:24:00,52.6,25.7,30.07,SSW,195,4.0,7.0,35,0.00,,,0.00,436,WeatherCatV1.15B25,2013-05-07 19:24:00,
2013-05-07 13:29:00,53.8,26.8,30.07,South,184,7.0,8.0,35,0.00,,,0.00,1110,WeatherCatV1.15B25,2013-05-07 19:29:00,
2013-05-07 13:34:00,53.6,28.0,30.07,SSE,155,1.0,17.0,37,0.00,,,0.00,516,WeatherCatV1.15B25,2013-05-07 19:34:00,
2013-05-07 13:39:00,54.1,27.1,30.07,SW,230,5.0,8.0,35,0.00,,,0.00,516,WeatherCatV1.15B25,2013-05-07 19:39:00,
2013-05-07 13:44:00,54.8,26.3,30.06,SSW,195,6.0,8.0,33,0.00,,,0.00,1073,WeatherCatV1.15B25,2013-05-07 19:44:00,
2013-05-07 13:49:00,55.3,23.6,30.06,WSW,253,3.0,8.0,29,0.00,,,0.00,955,WeatherCatV1.15B25,2013-05-07 19:49:00,
2013-05-07 13:54:00,55.0,24.1,30.06,SW,215,0.0,6.0,30,0.00,,,0.00,892,WeatherCatV1.15B25,2013-05-07 19:54:00,
2013-05-07 13:59:00,55.1,25.0,30.06,SSW,199,5.0,6.0,31,0.00,,,0.00,845,WeatherCatV1.15B25,2013-05-07 19:59:00,
2013-05-07 14:04:00,54.8,24.0,30.06,SSE,162,12.0,18.0,30,0.00,,,0.00,644,WeatherCatV1.15B25,2013-05-07 20:04:00,
2013-05-07 14:09:00,54.4,27.3,30.06,SW,217,19.0,19.0,35,0.00,,,0.00,653,WeatherCatV1.15B25,2013-05-07 20:09:00,
2013-05-07 14:14:00,52.9,28.6,30.06,SSE,165,10.0,13.0,39,0.00,,,0.00,280,WeatherCatV1.15B25,2013-05-07 20:14:00,
2013-05-07 14:19:00,52.6,27.1,30.06,SSW,202,8.0,14.0,37,0.00,,,0.00,273,WeatherCatV1.15B25,2013-05-07 20:19:00,
2013-05-07 14:24:00,52.3,28.1,30.06,South,191,8.0,12.0,39,0.00,,,0.00,276,WeatherCatV1.15B25,2013-05-07 20:24:00,
2013-05-07 14:29:00,52.0,27.8,30.06,South,189,11.0,14.0,39,0.00,,,0.00,278,WeatherCatV1.15B25,2013-05-07 20:29:00,
2013-05-07 14:34:00,51.6,27.5,30.06,WNW,298,6.0,14.0,39,0.00,,,0.00,428,WeatherCatV1.15B25,2013-05-07 20:34:00,
2013-05-07 14:39:00,51.7,29.9,30.06,WNW,285,16.0,18.0,43,0.00,,,0.00,493,WeatherCatV1.15B25,2013-05-07 20:39:00,
2013-05-07 14:44:00,52.0,30.8,30.06,WNW,285,14.0,17.0,44,0.00,,,0.00,1098,WeatherCatV1.15B25,2013-05-07 20:44:00,
2013-05-07 14:49:00,51.7,29.9,30.06,West,271,19.0,24.0,43,0.00,,,0.00,1160,WeatherCatV1.15B25,2013-05-07 20:49:00,
2013-05-07 14:54:00,50.4,29.9,30.06,WNW,287,6.0,20.0,45,0.00,,,0.00,389,WeatherCatV1.15B25,2013-05-07 20:54:00,
2013-05-07 14:59:00,49.8,29.3,30.06,West,261,19.0,19.0,45,0.00,,,0.00,243,WeatherCatV1.15B25,2013-05-07 20:59:00,
2013-05-07 15:04:00,49.4,30.0,30.06,WNW,302,13.0,17.0,47,0.00,,,0.00,179,WeatherCatV1.15B25,2013-05-07 21:04:00,
2013-05-07 15:09:00,49.4,29.5,30.06,WNW,299,7.0,12.0,46,0.00,,,0.00,188,WeatherCatV1.15B25,2013-05-07 21:09:00,
2013-05-07 15:14:00,49.5,29.0,30.05,SW,226,6.0,8.0,45,0.00,,,0.00,134,WeatherCatV1.15B25,2013-05-07 21:14:00,
2013-05-07 15:19:00,49.4,29.5,30.05,SW,217,6.0,13.0,46,0.00,,,0.00,83,WeatherCatV1.15B25,2013-05-07 21:19:00,
2013-05-07 15:24:00,49.1,29.7,30.05,West,270,6.0,11.0,47,0.00,,,0.00,51,WeatherCatV1.15B25,2013-05-07 21:24:00,
2013-05-07 15:29:00,48.5,29.2,30.06,SSW,210,13.0,13.0,47,0.00,,,0.00,35,WeatherCatV1.15B25,2013-05-07 21:29:00,
2013-05-07 15:34:00,47.7,30.0,30.06,SSW,202,5.0,14.0,50,0.00,,,0.00,26,WeatherCatV1.15B25,2013-05-07 21:34:00,
2013-05-07 15:39:00,47.0,32.1,30.06,South,176,3.0,10.0,56,0.00,,,0.00,23,WeatherCatV1.15B25,2013-05-07 21:39:00,
2013-05-07 15:44:00,46.5,32.1,30.08,SSW,208,8.0,10.0,57,0.00,,,0.00,19,WeatherCatV1.15B25,2013-05-07 21:44:00,
2013-05-07 15:49:00,45.5,32.0,30.08,South,189,5.0,6.0,59,0.00,,,0.00,19,WeatherCatV1.15B25,2013-05-07 21:49:00,
2013-05-07 15:54:00,44.8,32.6,30.08,WSW,250,3.0,7.0,62,0.00,,,0.00,30,WeatherCatV1.15B25,2013-05-07 21:54:00,
2013-05-07 15:59:00,44.1,34.2,30.09,West,261,11.0,13.0,68,0.00,,,0.00,46,WeatherCatV1.15B25,2013-05-07 21:59:00,
2013-05-07 16:04:00,43.2,35.8,30.09,NNW,337,5.0,7.0,75,0.00,,,0.00,90,WeatherCatV1.15B25,2013-05-07 22:04:00,
2013-05-07 16:09:00,42.5,35.8,30.09,WNW,299,5.0,10.0,77,0.00,,,0.01,100,WeatherCatV1.15B25,2013-05-07 22:09:00,
2013-05-07 16:14:00,42.1,36.1,30.08,WSW,250,1.0,6.0,79,0.09,,,0.02,132,WeatherCatV1.15B25,2013-05-07 22:14:00,
2013-05-07 16:19:00,42.1,36.7,30.08,West,272,5.0,7.0,81,0.09,,,0.02,157,WeatherCatV1.15B25,2013-05-07 22:19:00,
2013-05-07 16:24:00,42.2,36.8,30.08,West,274,6.0,7.0,81,0.05,,,0.02,206,WeatherCatV1.15B25,2013-05-07 22:24:00,
2013-05-07 16:29:00,42.5,37.4,30.08,West,263,7.0,9.0,82,0.04,,,0.02,287,WeatherCatV1.15B25,2013-05-07 22:29:00,
2013-05-07 16:34:00,42.9,36.5,30.08,WSW,258,5.0,9.0,78,0.00,,,0.02,343,WeatherCatV1.15B25,2013-05-07 22:34:00,
2013-05-07 16:39:00,43.5,37.4,30.08,West,281,6.0,7.0,79,0.00,,,0.02,318,WeatherCatV1.15B25,2013-05-07 22:39:00,
2013-05-07 16:44:00,43.6,35.9,30.08,SW,234,3.0,7.0,74,0.00,,,0.02,245,WeatherCatV1.15B25,2013-05-07 22:44:00,
2013-05-07 16:49:00,44.1,35.3,30.08,SW,234,2.0,8.0,71,0.00,,,0.02,329,WeatherCatV1.15B25,2013-05-07 22:49:00,
2013-05-07 16:54:00,44.9,35.7,30.08,SW,236,1.0,5.0,70,0.00,,,0.02,428,WeatherCatV1.15B25,2013-05-07 22:54:00,
2013-05-07 16:59:00,46.1,35.4,30.07,SW,236,0.0,0.0,66,0.00,,,0.02,882,WeatherCatV1.15B25,2013-05-07 22:59:00,
2013-05-07 17:04:00,47.1,34.4,30.07,SW,236,0.0,3.0,61,0.00,,,0.02,366,WeatherCatV1.15B25,2013-05-07 23:04:00,
2013-05-07 17:09:00,48.0,35.2,30.07,SE,130,0.0,1.0,61,0.00,,,0.02,366,WeatherCatV1.15B25,2013-05-07 23:09:00,
2013-05-07 17:14:00,48.9,33.9,30.07,East,92,0.0,4.0,56,0.00,,,0.02,632,WeatherCatV1.15B25,2013-05-07 23:14:00,
2013-05-07 17:19:00,49.5,35.3,30.07,East,93,3.0,3.0,58,0.00,,,0.02,593,WeatherCatV1.15B25,2013-05-07 23:19:00,
2013-05-07 17:24:00,48.9,35.2,30.07,East,99,6.0,8.0,59,0.00,,,0.02,394,WeatherCatV1.15B25,2013-05-07 23:24:00,
2013-05-07 17:29:00,48.3,33.8,30.07,ESE,119,5.0,8.0,57,0.00,,,0.02,269,WeatherCatV1.15B25,2013-05-07 23:29:00,
2013-05-07 17:34:00,47.9,34.7,30.07,ESE,120,3.0,8.0,60,0.00,,,0.02,183,WeatherCatV1.15B25,2013-05-07 23:34:00,
2013-05-07 17:39:00,47.3,34.9,30.07,ESE,106,5.0,10.0,62,0.00,,,0.02,188,WeatherCatV1.15B25,2013-05-07 23:39:00,
2013-05-07 17:44:00,46.7,34.8,30.07,East,89,3.0,6.0,63,0.00,,,0.02,157,WeatherCatV1.15B25,2013-05-07 23:44:00,
2013-05-07 17:49:00,46.1,35.4,30.07,ESE,116,3.0,10.0,66,0.00,,,0.02,143,WeatherCatV1.15B25,2013-05-07 23:49:00,
2013-05-07 17:54:00,45.8,34.7,30.07,ESE,113,5.0,6.0,65,0.00,,,0.02,123,WeatherCatV1.15B25,2013-05-07 23:54:00,
2013-05-07 17:59:00,45.4,34.7,30.07,ESE,112,3.0,7.0,66,0.00,,,0.02,123,WeatherCatV1.15B25,2013-05-07 23:59:00,
2013-05-07 18:04:00,45.1,34.4,30.07,ESE,112,0.0,3.0,66,0.00,,,0.02,120,WeatherCatV1.15B25,2013-05-08 00:04:00,
2013-05-07 18:09:00,44.9,34.2,30.07,ESE,112,0.0,2.0,66,0.00,,,0.02,132,WeatherCatV1.15B25,2013-05-08 00:09:00,
2013-05-07 18:14:00,44.9,34.6,30.07,ESE,112,2.0,2.0,67,0.00,,,0.02,187,WeatherCatV1.15B25,2013-05-08 00:14:00,
2013-05-07 18:19:00,45.2,35.3,30.07,ESE,112,0.0,0.0,68,0.00,,,0.02,211,WeatherCatV1.15B25,2013-05-08 00:19:00,
2013-05-07 18:24:00,45.5,35.2,30.07,ESE,112,0.0,2.0,67,0.00,,,0.02,262,WeatherCatV1.15B25,2013-05-08 00:24:00,
2013-05-07 18:29:00,45.8,34.7,30.07,ESE,112,0.0,6.0,65,0.00,,,0.02,185,WeatherCatV1.15B25,2013-05-08 00:29:00,
2013-05-07 18:34:00,46.0,35.3,30.07,ESE,112,0.0,0.0,66,0.00,,,0.02,146,WeatherCatV1.15B25,2013-05-08 00:34:00,
2013-05-07 18:39:00,46.0,35.3,30.07,ESE,112,0.0,0.0,66,0.00,,,0.02,88,WeatherCatV1.15B25,2013-05-08 00:39:00,
2013-05-07 18:44:00,45.8,34.7,30.07,ESE,112,0.0,0.0,65,0.00,,,0.02,46,WeatherCatV1.15B25,2013-05-08 00:44:00,
2013-05-07 18:49:00,45.5,34.4,30.07,ESE,112,0.0,0.0,65,0.00,,,0.02,32,WeatherCatV1.15B25,2013-05-08 00:49:00,
2013-05-07 18:54:00,45.2,34.5,30.07,ESE,112,0.0,0.0,66,0.00,,,0.02,28,WeatherCatV1.15B25,2013-05-08 00:54:00,
2013-05-07 18:59:00,45.1,34.4,30.08,ESE,112,0.0,0.0,66,0.00,,,0.02,28,WeatherCatV1.15B25,2013-05-08 00:59:00,
2013-05-07 19:04:00,44.9,34.6,30.08,ESE,112,0.0,0.0,67,0.00,,,0.02,28,WeatherCatV1.15B25,2013-05-08 01:04:00,
2013-05-07 19:09:00,44.8,34.9,30.08,ESE,112,0.0,0.0,68,0.00,,,0.02,28,WeatherCatV1.15B25,2013-05-08 01:09:00,
2013-05-07 19:14:00,44.8,36.0,30.07,ESE,112,0.0,0.0,71,0.00,,,0.02,26,WeatherCatV1.15B25,2013-05-08 01:14:00,
2013-05-07 19:19:00,44.2,35.8,30.07,ESE,112,0.0,0.0,72,0.00,,,0.02,25,WeatherCatV1.15B25,2013-05-08 01:19:00,
2013-05-07 19:24:00,43.8,35.4,30.07,ESE,112,0.0,0.0,72,0.00,,,0.02,21,WeatherCatV1.15B25,2013-05-08 01:24:00,
2013-05-07 19:29:00,43.3,35.2,30.08,ESE,112,0.0,1.0,73,0.00,,,0.02,19,WeatherCatV1.15B25,2013-05-08 01:29:00,
2013-05-07 19:34:00,43.1,35.4,30.08,ESE,112,0.0,0.0,74,0.00,,,0.02,19,WeatherCatV1.15B25,2013-05-08 01:34:00,
2013-05-07 19:39:00,42.8,35.8,30.08,ESE,112,0.0,0.0,76,0.00,,,0.02,16,WeatherCatV1.15B25,2013-05-08 01:39:00,
2013-05-07 19:44:00,42.2,35.2,30.08,ESE,112,3.0,3.0,76,0.00,,,0.02,14,WeatherCatV1.15B25,2013-05-08 01:44:00,
2013-05-07 19:49:00,41.8,34.8,30.08,ESE,112,0.0,0.0,76,0.00,,,0.02,9,WeatherCatV1.15B25,2013-05-08 01:49:00,
2013-05-07 19:54:00,41.5,34.8,30.08,ESE,112,0.0,0.0,77,0.00,,,0.02,7,WeatherCatV1.15B25,2013-05-08 01:54:00,
2013-05-07 19:59:00,41.2,34.9,30.08,ESE,112,0.0,0.0,78,0.00,,,0.02,5,WeatherCatV1.15B25,2013-05-08 01:59:00,
2013-05-07 20:04:00,40.6,34.6,30.08,ESE,112,0.0,0.0,79,0.00,,,0.02,0,WeatherCatV1.15B25,2013-05-08 02:04:00,
2013-05-07 20:09:00,40.2,34.5,30.08,WSW,241,4.0,7.0,80,0.00,,,0.02,0,WeatherCatV1.15B25,2013-05-08 02:09:00,
2013-05-07 20:14:00,39.9,33.6,30.08,WSW,241,2.0,5.0,78,0.00,,,0.02,0,WeatherCatV1.15B25,2013-05-08 02:14:00,
2013-05-07 20:19:00,39.8,33.8,30.08,WSW,241,0.0,0.0,79,0.00,,,0.02,0,WeatherCatV1.15B25,2013-05-08 02:19:00,
2013-05-07 20:24:00,39.5,33.5,30.08,WSW,241,0.0,0.0,79,0.00,,,0.02,0,WeatherCatV1.15B25,2013-05-08 02:24:00,
2013-05-07 20:29:00,39.2,33.6,30.08,WSW,241,5.0,6.0,80,0.00,,,0.02,0,WeatherCatV1.15B25,2013-05-08 02:29:00,
2013-05-07 20:34:00,39.2,33.2,30.08,WNW,295,6.0,8.0,79,0.00,,,0.02,0,WeatherCatV1.15B25,2013-05-08 02:34:00,
2013-05-07 20:39:00,39.3,33.0,30.08,WNW,295,5.0,6.0,78,0.00,,,0.02,0,WeatherCatV1.15B25,2013-05-08 02:39:00,
2013-05-07 20:44:00,39.5,32.9,30.09,WNW,298,6.0,7.0,77,0.00,,,0.02,0,WeatherCatV1.15B25,2013-05-08 02:44:00,
2013-05-07 20:49:00,39.5,32.9,30.09,NW,305,6.0,10.0,77,0.00,,,0.02,0,WeatherCatV1.15B25,2013-05-08 02:49:00,
2013-05-07 20:54:00,39.3,32.7,30.09,NW,305,0.0,2.0,77,0.00,,,0.02,0,WeatherCatV1.15B25,2013-05-08 02:54:00,
2013-05-07 20:59:00,39.2,32.6,30.09,NW,305,0.0,3.0,77,0.00,,,0.02,0,WeatherCatV1.15B25,2013-05-08 02:59:00,
2013-05-07 21:04:00,38.8,32.2,30.09,NW,306,2.0,4.0,77,0.00,,,0.02,0,WeatherCatV1.15B25,2013-05-08 03:04:00,
2013-05-07 21:09:00,38.2,32.0,30.09,NW,305,0.0,0.0,78,0.00,,,0.02,0,WeatherCatV1.15B25,2013-05-08 03:09:00,
2013-05-07 21:14:00,37.9,32.3,30.09,NW,305,3.0,5.0,80,0.00,,,0.02,0,WeatherCatV1.15B25,2013-05-08 03:14:00,
2013-05-07 21:19:00,37.8,32.2,30.09,NW,305,2.0,3.0,80,0.00,,,0.02,0,WeatherCatV1.15B25,2013-05-08 03:19:00,
2013-05-07 21:24:00,37.5,31.9,30.09,NW,306,5.0,6.0,80,0.00,,,0.02,0,WeatherCatV1.15B25,2013-05-08 03:24:00,
2013-05-07 21:29:00,37.3,31.7,30.09,WNW,294,3.0,6.0,80,0.00,,,0.02,0,WeatherCatV1.15B25,2013-05-08 03:29:00,
2013-05-07 21:34:00,37.3,31.7,30.09,WNW,292,3.0,6.0,80,0.00,,,0.02,0,WeatherCatV1.15B25,2013-05-08 03:34:00,
2013-05-07 21:39:00,37.3,31.4,30.09,WNW,292,3.0,4.0,79,0.00,,,0.02,0,WeatherCatV1.15B25,2013-05-08 03:39:00,
2013-05-07 21:44:00,37.3,31.4,30.09,WNW,294,3.0,5.0,79,0.00,,,0.02,0,WeatherCatV1.15B25,2013-05-08 03:44:00,
2013-05-07 21:49:00,36.9,31.3,30.09,WNW,294,3.0,4.0,80,0.00,,,0.02,0,WeatherCatV1.15B25,2013-05-08 03:49:00,
2013-05-07 21:54:00,36.6,31.0,30.09,WNW,294,0.0,0.0,80,0.00,,,0.02,0,WeatherCatV1.15B25,2013-05-08 03:54:00,
2013-05-07 21:59:00,36.5,30.9,30.09,WNW,294,0.0,0.0,80,0.00,,,0.02,0,WeatherCatV1.15B25,2013-05-08 03:59:00,
2013-05-07 22:01:00,36.5,30.9,30.09,WNW,294,0.0,0.0,80,0.00,,,0.02,0,WeatherCatV1.15B25,2013-05-08 04:01:00,
2013-05-07 22:05:00,36.5,30.9,30.09,WNW,294,0.0,0.0,80,0.00,,,0.00,0,WeatherCatV1.15B25,2013-05-08 04:05:00,
2013-05-07 22:06:00,36.3,30.7,30.09,WNW,294,3.0,6.0,80,0.00,,,0.02,0,WeatherCatV1.15B25,2013-05-08 04:06:00,
2013-05-07 22:10:00,36.3,30.7,30.09,WNW,294,0.0,6.0,80,0.00,,,0.00,0,WeatherCatV1.15B25,2013-05-08 04:10:00,
2013-05-07 22:15:00,36.3,30.7,30.09,WNW,294,0.0,6.0,80,0.00,,,0.00,0,WeatherCatV1.15B25,2013-05-08 04:15:00,
2013-05-07 22:20:00,36.0,30.7,30.09,WNW,292,2.0,6.0,81,0.00,,,0.00,0,WeatherCatV1.15B25,2013-05-08 04:20:00,
2013-05-07 22:25:00,36.0,30.7,30.09,WNW,292,2.0,6.0,81,0.00,,,0.00,0,WeatherCatV1.15B25,2013-05-08 04:25:00,
2013-05-07 22:30:00,36.0,30.7,30.09,WNW,292,2.0,6.0,81,0.00,,,0.00,0,WeatherCatV1.15B25,2013-05-08 04:30:00,
2013-05-07 22:35:00,36.2,30.3,30.09,WNW,292,1.0,5.0,79,0.00,,,0.00,0,WeatherCatV1.15B25,2013-05-08 04:35:00,
2013-05-07 22:40:00,36.2,30.3,30.09,WNW,292,1.0,5.0,79,0.00,,,0.00,0,WeatherCatV1.15B25,2013-05-08 04:40:00,
2013-05-07 22:45:00,36.2,30.3,30.09,WNW,292,1.0,5.0,79,0.00,,,0.00,0,WeatherCatV1.15B25,2013-05-08 04:45:00,
2013-05-07 22:50:00,34.9,30.0,30.09,WNW,292,2.0,5.0,82,0.00,,,0.00,0,WeatherCatV1.15B25,2013-05-08 04:50:00,
2013-05-07 22:55:00,34.9,30.0,30.09,WNW,292,2.0,5.0,82,0.00,,,0.00,0,WeatherCatV1.15B25,2013-05-08 04:55:00,
2013-05-07 23:00:00,34.9,30.0,30.09,WNW,292,2.0,5.0,82,0.00,,,0.00,0,WeatherCatV1.15B25,2013-05-08 05:00:00,
2013-05-07 23:05:00,34.9,30.0,30.09,WNW,292,1.0,7.0,82,0.00,,,0.00,0,WeatherCatV1.15B25,2013-05-08 05:05:00,
2013-05-07 23:10:00,34.9,30.0,30.09,WNW,292,1.0,7.0,82,0.00,,,0.00,0,WeatherCatV1.15B25,2013-05-08 05:10:00,
2013-05-07 23:15:00,34.9,30.0,30.09,WNW,292,1.0,7.0,82,0.00,,,0.00,0,WeatherCatV1.15B25,2013-05-08 05:15:00,
2013-05-07 23:20:00,34.6,29.7,30.09,WNW,292,1.0,6.0,82,0.00,,,0.00,0,WeatherCatV1.15B25,2013-05-08 05:20:00,
2013-05-07 23:25:00,34.6,29.7,30.09,WNW,292,1.0,6.0,82,0.00,,,0.00,0,WeatherCatV1.15B25,2013-05-08 05:25:00,
2013-05-07 23:30:00,34.6,29.7,30.09,WNW,292,1.0,6.0,82,0.00,,,0.00,0,WeatherCatV1.15B25,2013-05-08 05:30:00,
2013-05-07 23:35:00,34.4,29.8,30.09,WNW,292,2.0,6.0,83,0.00,,,0.00,0,WeatherCatV1.15B25,2013-05-08 05:35:00,
2013-05-07 23:40:00,34.4,29.8,30.09,WNW,292,2.0,6.0,83,0.00,,,0.00,0,WeatherCatV1.15B25,2013-05-08 05:40:00,
2013-05-07 23:45:00,34.4,29.8,30.09,WNW,292,2.0,6.0,83,0.00,,,0.00,0,WeatherCatV1.15B25,2013-05-08 05:45:00,
2013-05-07 23:50:00,34.4,29.5,30.09,WNW,292,2.0,7.0,82,0.00,,,0.00,0,WeatherCatV1.15B25,2013-05-08 05:50:00,
2013-05-07 23:55:00,34.4,29.5,30.09,WNW,292,2.0,7.0,82,0.00,,,0.00,0,WeatherCatV1.15B25,2013-05-08 05:55:00,